sensor_id;sensor_type;location;lat;lon;timestamp;P1;durP1;ratioP1;P2;durP2;ratioP2
22034;SDS011;11181;51.002;4.356;2023-02-11T00:00:47;11.10;;;6.17;;
22034;SDS011;11181;51.002;4.356;2023-02-11T00:03:14;17.07;;;5.63;;
22034;SDS011;11181;51.002;4.356;2023-02-11T00:05:41;11.30;;;5.80;;
22034;SDS011;11181;51.002;4.356;2023-02-11T00:08:08;13.97;;;5.63;;
22034;SDS011;11181;51.002;4.356;2023-02-11T00:10:42;10.70;;;6.33;;
22034;SDS011;11181;51.002;4.356;2023-02-11T00:13:10;9.53;;;5.43;;
22034;SDS011;11181;51.002;4.356;2023-02-11T00:15:37;11.70;;;5.23;;
22034;SDS011;11181;51.002;4.356;2023-02-11T00:18:04;14.47;;;5.70;;
22034;SDS011;11181;51.002;4.356;2023-02-11T00:20:31;11.80;;;5.47;;
22034;SDS011;11181;51.002;4.356;2023-02-11T00:22:58;11.17;;;6.00;;
22034;SDS011;11181;51.002;4.356;2023-02-11T00:25:25;12.70;;;6.23;;
22034;SDS011;11181;51.002;4.356;2023-02-11T00:27:53;10.73;;;4.90;;
22034;SDS011;11181;51.002;4.356;2023-02-11T00:30:20;10.63;;;5.10;;
22034;SDS011;11181;51.002;4.356;2023-02-11T00:32:47;12.37;;;5.63;;
22034;SDS011;11181;51.002;4.356;2023-02-11T00:35:15;12.40;;;5.33;;
22034;SDS011;11181;51.002;4.356;2023-02-11T00:37:42;14.07;;;5.63;;
22034;SDS011;11181;51.002;4.356;2023-02-11T00:40:10;11.77;;;5.17;;
22034;SDS011;11181;51.002;4.356;2023-02-11T00:42:40;16.13;;;6.60;;
22034;SDS011;11181;51.002;4.356;2023-02-11T00:45:08;12.63;;;5.23;;
22034;SDS011;11181;51.002;4.356;2023-02-11T00:47:35;12.17;;;5.20;;
22034;SDS011;11181;51.002;4.356;2023-02-11T00:50:03;12.63;;;5.87;;
22034;SDS011;11181;51.002;4.356;2023-02-11T00:52:30;15.03;;;5.40;;
22034;SDS011;11181;51.002;4.356;2023-02-11T00:54:58;9.50;;;5.50;;
22034;SDS011;11181;51.002;4.356;2023-02-11T00:57:24;12.63;;;5.90;;
22034;SDS011;11181;51.002;4.356;2023-02-11T00:59:51;12.63;;;5.27;;
22034;SDS011;11181;51.002;4.356;2023-02-11T01:02:20;12.07;;;4.70;;
22034;SDS011;11181;51.002;4.356;2023-02-11T01:04:46;14.37;;;5.43;;
22034;SDS011;11181;51.002;4.356;2023-02-11T01:07:13;8.37;;;5.03;;
22034;SDS011;11181;51.002;4.356;2023-02-11T01:09:40;12.07;;;5.10;;
22034;SDS011;11181;51.002;4.356;2023-02-11T01:12:07;12.80;;;5.73;;
22034;SDS011;11181;51.002;4.356;2023-02-11T01:14:34;13.93;;;6.20;;
22034;SDS011;11181;51.002;4.356;2023-02-11T01:17:03;23.53;;;6.03;;
22034;SDS011;11181;51.002;4.356;2023-02-11T01:19:31;12.77;;;5.10;;
22034;SDS011;11181;51.002;4.356;2023-02-11T01:21:58;11.07;;;5.27;;
22034;SDS011;11181;51.002;4.356;2023-02-11T01:24:25;12.63;;;5.13;;
22034;SDS011;11181;51.002;4.356;2023-02-11T01:26:52;11.23;;;5.50;;
22034;SDS011;11181;51.002;4.356;2023-02-11T01:29:19;10.07;;;5.67;;
22034;SDS011;11181;51.002;4.356;2023-02-11T01:31:46;13.47;;;5.77;;
22034;SDS011;11181;51.002;4.356;2023-02-11T01:34:14;13.77;;;6.17;;
22034;SDS011;11181;51.002;4.356;2023-02-11T01:36:42;15.87;;;5.80;;
22034;SDS011;11181;51.002;4.356;2023-02-11T01:39:09;13.00;;;5.17;;
22034;SDS011;11181;51.002;4.356;2023-02-11T01:41:36;14.17;;;5.20;;
22034;SDS011;11181;51.002;4.356;2023-02-11T01:44:23;16.23;;;6.17;;
22034;SDS011;11181;51.002;4.356;2023-02-11T01:46:52;15.17;;;5.83;;
22034;SDS011;11181;51.002;4.356;2023-02-11T01:49:20;12.30;;;5.87;;
22034;SDS011;11181;51.002;4.356;2023-02-11T01:51:52;13.33;;;5.97;;
22034;SDS011;11181;51.002;4.356;2023-02-11T01:54:25;17.40;;;5.93;;
22034;SDS011;11181;51.002;4.356;2023-02-11T01:57:13;15.33;;;6.70;;
22034;SDS011;11181;51.002;4.356;2023-02-11T02:00:07;16.10;;;5.50;;
22034;SDS011;11181;51.002;4.356;2023-02-11T02:02:39;13.93;;;6.70;;
22034;SDS011;11181;51.002;4.356;2023-02-11T02:05:14;12.97;;;5.77;;
22034;SDS011;11181;51.002;4.356;2023-02-11T02:07:51;15.93;;;6.37;;
22034;SDS011;11181;51.002;4.356;2023-02-11T02:10:25;17.20;;;5.93;;
22034;SDS011;11181;51.002;4.356;2023-02-11T02:12:54;16.10;;;6.33;;
22034;SDS011;11181;51.002;4.356;2023-02-11T02:15:25;14.70;;;7.33;;
22034;SDS011;11181;51.002;4.356;2023-02-11T02:17:58;12.73;;;5.60;;
22034;SDS011;11181;51.002;4.356;2023-02-11T02:20:42;11.30;;;6.20;;
22034;SDS011;11181;51.002;4.356;2023-02-11T02:23:53;14.67;;;5.33;;
22034;SDS011;11181;51.002;4.356;2023-02-11T02:29:53;9.87;;;5.30;;
22034;SDS011;11181;51.002;4.356;2023-02-11T02:32:49;13.47;;;5.40;;
22034;SDS011;11181;51.002;4.356;2023-02-11T02:35:25;10.37;;;5.50;;
22034;SDS011;11181;51.002;4.356;2023-02-11T02:38:00;14.43;;;5.60;;
22034;SDS011;11181;51.002;4.356;2023-02-11T02:40:32;12.63;;;5.93;;
22034;SDS011;11181;51.002;4.356;2023-02-11T02:43:03;17.30;;;5.97;;
22034;SDS011;11181;51.002;4.356;2023-02-11T02:45:32;11.50;;;6.00;;
22034;SDS011;11181;51.002;4.356;2023-02-11T02:48:00;15.10;;;5.50;;
22034;SDS011;11181;51.002;4.356;2023-02-11T02:50:29;12.17;;;6.17;;
22034;SDS011;11181;51.002;4.356;2023-02-11T02:53:04;11.97;;;5.13;;
22034;SDS011;11181;51.002;4.356;2023-02-11T02:55:47;14.40;;;6.30;;
22034;SDS011;11181;51.002;4.356;2023-02-11T02:58:26;12.30;;;6.00;;
22034;SDS011;11181;51.002;4.356;2023-02-11T03:01:07;13.60;;;6.03;;
22034;SDS011;11181;51.002;4.356;2023-02-11T03:03:45;20.20;;;5.50;;
22034;SDS011;11181;51.002;4.356;2023-02-11T03:06:22;17.00;;;7.20;;
22034;SDS011;11181;51.002;4.356;2023-02-11T03:08:53;14.37;;;6.40;;
22034;SDS011;11181;51.002;4.356;2023-02-11T03:11:24;12.30;;;5.70;;
22034;SDS011;11181;51.002;4.356;2023-02-11T03:13:53;13.37;;;5.93;;
22034;SDS011;11181;51.002;4.356;2023-02-11T03:16:22;15.87;;;6.57;;
22034;SDS011;11181;51.002;4.356;2023-02-11T03:18:55;14.37;;;5.60;;
22034;SDS011;11181;51.002;4.356;2023-02-11T03:21:27;14.07;;;5.27;;
22034;SDS011;11181;51.002;4.356;2023-02-11T03:23:59;14.03;;;5.60;;
22034;SDS011;11181;51.002;4.356;2023-02-11T03:26:29;15.13;;;6.27;;
22034;SDS011;11181;51.002;4.356;2023-02-11T03:29:03;13.17;;;5.63;;
22034;SDS011;11181;51.002;4.356;2023-02-11T03:31:37;15.67;;;5.03;;
22034;SDS011;11181;51.002;4.356;2023-02-11T03:34:14;12.20;;;5.80;;
22034;SDS011;11181;51.002;4.356;2023-02-11T03:36:47;11.73;;;5.40;;
22034;SDS011;11181;51.002;4.356;2023-02-11T03:39:18;14.93;;;5.93;;
22034;SDS011;11181;51.002;4.356;2023-02-11T03:41:49;10.20;;;6.00;;
22034;SDS011;11181;51.002;4.356;2023-02-11T03:44:20;11.47;;;5.23;;
22034;SDS011;11181;51.002;4.356;2023-02-11T03:46:50;11.27;;;5.27;;
22034;SDS011;11181;51.002;4.356;2023-02-11T03:49:21;10.50;;;5.10;;
22034;SDS011;11181;51.002;4.356;2023-02-11T03:51:52;12.93;;;5.50;;
22034;SDS011;11181;51.002;4.356;2023-02-11T03:54:23;14.17;;;6.17;;
22034;SDS011;11181;51.002;4.356;2023-02-11T03:56:55;11.80;;;5.90;;
22034;SDS011;11181;51.002;4.356;2023-02-11T03:59:24;12.17;;;4.87;;
22034;SDS011;11181;51.002;4.356;2023-02-11T04:01:51;14.83;;;6.03;;
22034;SDS011;11181;51.002;4.356;2023-02-11T04:04:18;11.07;;;6.10;;
22034;SDS011;11181;51.002;4.356;2023-02-11T04:06:47;13.63;;;5.87;;
22034;SDS011;11181;51.002;4.356;2023-02-11T04:09:14;11.20;;;5.83;;
22034;SDS011;11181;51.002;4.356;2023-02-11T04:11:41;9.30;;;4.93;;
22034;SDS011;11181;51.002;4.356;2023-02-11T04:14:08;13.20;;;5.53;;
22034;SDS011;11181;51.002;4.356;2023-02-11T04:16:35;15.90;;;5.80;;
22034;SDS011;11181;51.002;4.356;2023-02-11T04:19:02;10.80;;;5.33;;
22034;SDS011;11181;51.002;4.356;2023-02-11T04:21:30;17.87;;;6.67;;
22034;SDS011;11181;51.002;4.356;2023-02-11T04:23:57;11.97;;;5.60;;
22034;SDS011;11181;51.002;4.356;2023-02-11T04:26:24;11.90;;;5.37;;
22034;SDS011;11181;51.002;4.356;2023-02-11T04:28:51;18.63;;;6.30;;
22034;SDS011;11181;51.002;4.356;2023-02-11T04:31:18;12.87;;;6.23;;
22034;SDS011;11181;51.002;4.356;2023-02-11T04:33:45;15.83;;;6.80;;
22034;SDS011;11181;51.002;4.356;2023-02-11T04:36:12;16.40;;;5.83;;
22034;SDS011;11181;51.002;4.356;2023-02-11T04:38:43;16.87;;;7.37;;
22034;SDS011;11181;51.002;4.356;2023-02-11T04:41:09;15.17;;;6.43;;
22034;SDS011;11181;51.002;4.356;2023-02-11T04:43:37;14.37;;;7.07;;
22034;SDS011;11181;51.002;4.356;2023-02-11T04:46:04;12.37;;;6.30;;
22034;SDS011;11181;51.002;4.356;2023-02-11T04:48:31;18.30;;;6.33;;
22034;SDS011;11181;51.002;4.356;2023-02-11T04:50:58;13.67;;;6.33;;
22034;SDS011;11181;51.002;4.356;2023-02-11T04:53:26;18.47;;;7.07;;
22034;SDS011;11181;51.002;4.356;2023-02-11T04:55:55;15.00;;;6.60;;
22034;SDS011;11181;51.002;4.356;2023-02-11T04:58:21;15.00;;;6.03;;
22034;SDS011;11181;51.002;4.356;2023-02-11T05:00:49;13.27;;;6.33;;
22034;SDS011;11181;51.002;4.356;2023-02-11T05:03:16;14.00;;;7.33;;
22034;SDS011;11181;51.002;4.356;2023-02-11T05:05:43;13.30;;;5.90;;
22034;SDS011;11181;51.002;4.356;2023-02-11T05:08:10;13.80;;;7.00;;
22034;SDS011;11181;51.002;4.356;2023-02-11T05:10:37;12.87;;;6.53;;
22034;SDS011;11181;51.002;4.356;2023-02-11T05:13:06;16.90;;;6.67;;
22034;SDS011;11181;51.002;4.356;2023-02-11T05:15:33;14.57;;;6.73;;
22034;SDS011;11181;51.002;4.356;2023-02-11T05:18:00;12.00;;;6.43;;
22034;SDS011;11181;51.002;4.356;2023-02-11T05:20:27;16.20;;;7.97;;
22034;SDS011;11181;51.002;4.356;2023-02-11T05:22:54;16.97;;;7.03;;
22034;SDS011;11181;51.002;4.356;2023-02-11T05:25:21;14.67;;;7.33;;
22034;SDS011;11181;51.002;4.356;2023-02-11T05:27:47;10.53;;;6.53;;
22034;SDS011;11181;51.002;4.356;2023-02-11T05:30:16;20.80;;;7.50;;
22034;SDS011;11181;51.002;4.356;2023-02-11T05:32:43;18.97;;;8.00;;
22034;SDS011;11181;51.002;4.356;2023-02-11T05:35:10;12.60;;;7.70;;
22034;SDS011;11181;51.002;4.356;2023-02-11T05:37:37;11.83;;;6.83;;
22034;SDS011;11181;51.002;4.356;2023-02-11T05:40:04;19.67;;;7.70;;
22034;SDS011;11181;51.002;4.356;2023-02-11T05:42:31;14.30;;;7.13;;
22034;SDS011;11181;51.002;4.356;2023-02-11T05:44:58;16.77;;;7.83;;
22034;SDS011;11181;51.002;4.356;2023-02-11T05:47:27;18.27;;;7.80;;
22034;SDS011;11181;51.002;4.356;2023-02-11T05:49:54;10.83;;;7.37;;
22034;SDS011;11181;51.002;4.356;2023-02-11T05:52:21;15.37;;;7.50;;
22034;SDS011;11181;51.002;4.356;2023-02-11T05:54:48;17.97;;;8.87;;
22034;SDS011;11181;51.002;4.356;2023-02-11T05:57:15;14.37;;;7.63;;
22034;SDS011;11181;51.002;4.356;2023-02-11T05:59:42;16.93;;;8.10;;
22034;SDS011;11181;51.002;4.356;2023-02-11T06:02:09;15.20;;;8.13;;
22034;SDS011;11181;51.002;4.356;2023-02-11T06:04:38;14.63;;;8.40;;
22034;SDS011;11181;51.002;4.356;2023-02-11T06:07:05;17.27;;;9.37;;
22034;SDS011;11181;51.002;4.356;2023-02-11T06:09:32;20.17;;;9.53;;
22034;SDS011;11181;51.002;4.356;2023-02-11T06:11:59;17.23;;;8.67;;
22034;SDS011;11181;51.002;4.356;2023-02-11T06:14:26;17.13;;;8.53;;
22034;SDS011;11181;51.002;4.356;2023-02-11T06:16:53;17.00;;;9.63;;
22034;SDS011;11181;51.002;4.356;2023-02-11T06:19:20;25.80;;;11.03;;
22034;SDS011;11181;51.002;4.356;2023-02-11T06:21:48;17.23;;;9.43;;
22034;SDS011;11181;51.002;4.356;2023-02-11T06:24:15;28.87;;;10.57;;
22034;SDS011;11181;51.002;4.356;2023-02-11T06:26:42;17.73;;;10.07;;
22034;SDS011;11181;51.002;4.356;2023-02-11T06:29:09;19.43;;;9.93;;
22034;SDS011;11181;51.002;4.356;2023-02-11T06:31:37;18.83;;;10.03;;
22034;SDS011;11181;51.002;4.356;2023-02-11T06:34:04;18.10;;;8.43;;
22034;SDS011;11181;51.002;4.356;2023-02-11T06:36:31;18.00;;;9.80;;
22034;SDS011;11181;51.002;4.356;2023-02-11T06:38:59;20.50;;;10.47;;
22034;SDS011;11181;51.002;4.356;2023-02-11T06:41:26;18.40;;;9.40;;
22034;SDS011;11181;51.002;4.356;2023-02-11T06:43:53;20.40;;;9.93;;
22034;SDS011;11181;51.002;4.356;2023-02-11T06:46:22;17.17;;;9.37;;
22034;SDS011;11181;51.002;4.356;2023-02-11T06:48:49;17.63;;;10.40;;
22034;SDS011;11181;51.002;4.356;2023-02-11T06:51:16;19.77;;;11.10;;
22034;SDS011;11181;51.002;4.356;2023-02-11T06:53:43;20.80;;;10.03;;
22034;SDS011;11181;51.002;4.356;2023-02-11T06:56:13;21.30;;;10.40;;
22034;SDS011;11181;51.002;4.356;2023-02-11T06:58:42;17.67;;;10.60;;
22034;SDS011;11181;51.002;4.356;2023-02-11T07:01:10;18.33;;;10.77;;
22034;SDS011;11181;51.002;4.356;2023-02-11T07:03:39;17.80;;;10.40;;
22034;SDS011;11181;51.002;4.356;2023-02-11T07:06:10;24.60;;;11.27;;
22034;SDS011;11181;51.002;4.356;2023-02-11T07:08:38;23.47;;;11.27;;
22034;SDS011;11181;51.002;4.356;2023-02-11T07:11:08;22.40;;;11.30;;
22034;SDS011;11181;51.002;4.356;2023-02-11T07:13:37;25.63;;;10.13;;
22034;SDS011;11181;51.002;4.356;2023-02-11T07:16:05;17.93;;;10.73;;
22034;SDS011;11181;51.002;4.356;2023-02-11T07:18:32;19.90;;;10.27;;
22034;SDS011;11181;51.002;4.356;2023-02-11T07:21:02;26.13;;;11.37;;
22034;SDS011;11181;51.002;4.356;2023-02-11T07:23:30;25.13;;;12.03;;
22034;SDS011;11181;51.002;4.356;2023-02-11T07:25:57;20.13;;;10.53;;
22034;SDS011;11181;51.002;4.356;2023-02-11T07:28:28;18.10;;;11.00;;
22034;SDS011;11181;51.002;4.356;2023-02-11T07:30:56;18.77;;;11.17;;
22034;SDS011;11181;51.002;4.356;2023-02-11T07:33:23;24.67;;;10.47;;
22034;SDS011;11181;51.002;4.356;2023-02-11T07:35:50;20.17;;;10.60;;
22034;SDS011;11181;51.002;4.356;2023-02-11T07:38:17;20.50;;;11.60;;
22034;SDS011;11181;51.002;4.356;2023-02-11T07:40:44;19.10;;;10.70;;
22034;SDS011;11181;51.002;4.356;2023-02-11T07:43:12;22.70;;;11.43;;
22034;SDS011;11181;51.002;4.356;2023-02-11T07:45:38;21.47;;;11.17;;
22034;SDS011;11181;51.002;4.356;2023-02-11T07:48:07;22.00;;;11.07;;
22034;SDS011;11181;51.002;4.356;2023-02-11T07:50:34;21.93;;;10.93;;
22034;SDS011;11181;51.002;4.356;2023-02-11T07:53:01;21.30;;;11.50;;
22034;SDS011;11181;51.002;4.356;2023-02-11T07:55:28;23.23;;;11.53;;
22034;SDS011;11181;51.002;4.356;2023-02-11T07:57:55;22.87;;;13.60;;
22034;SDS011;11181;51.002;4.356;2023-02-11T08:00:22;18.80;;;10.30;;
22034;SDS011;11181;51.002;4.356;2023-02-11T08:02:49;26.83;;;12.13;;
22034;SDS011;11181;51.002;4.356;2023-02-11T08:05:18;25.10;;;11.67;;
22034;SDS011;11181;51.002;4.356;2023-02-11T08:07:45;20.90;;;12.17;;
22034;SDS011;11181;51.002;4.356;2023-02-11T08:10:15;22.37;;;11.73;;
22034;SDS011;11181;51.002;4.356;2023-02-11T08:12:43;22.00;;;11.40;;
22034;SDS011;11181;51.002;4.356;2023-02-11T08:15:10;21.77;;;13.03;;
22034;SDS011;11181;51.002;4.356;2023-02-11T08:17:37;21.20;;;12.07;;
22034;SDS011;11181;51.002;4.356;2023-02-11T08:20:04;22.07;;;11.50;;
22034;SDS011;11181;51.002;4.356;2023-02-11T08:22:33;23.40;;;12.63;;
22034;SDS011;11181;51.002;4.356;2023-02-11T08:25:00;22.40;;;13.43;;
22034;SDS011;11181;51.002;4.356;2023-02-11T08:27:28;19.87;;;12.13;;
22034;SDS011;11181;51.002;4.356;2023-02-11T08:29:55;25.27;;;12.23;;
22034;SDS011;11181;51.002;4.356;2023-02-11T08:32:24;24.07;;;13.30;;
22034;SDS011;11181;51.002;4.356;2023-02-11T08:34:51;20.93;;;12.83;;
22034;SDS011;11181;51.002;4.356;2023-02-11T08:37:18;23.87;;;13.17;;
22034;SDS011;11181;51.002;4.356;2023-02-11T08:39:48;23.67;;;15.30;;
22034;SDS011;11181;51.002;4.356;2023-02-11T08:42:15;28.90;;;14.87;;
22034;SDS011;11181;51.002;4.356;2023-02-11T08:44:42;22.97;;;13.83;;
22034;SDS011;11181;51.002;4.356;2023-02-11T08:47:09;23.80;;;13.50;;
22034;SDS011;11181;51.002;4.356;2023-02-11T08:49:36;25.90;;;15.13;;
22034;SDS011;11181;51.002;4.356;2023-02-11T08:52:03;31.43;;;16.73;;
22034;SDS011;11181;51.002;4.356;2023-02-11T08:54:30;34.57;;;16.53;;
22034;SDS011;11181;51.002;4.356;2023-02-11T08:56:59;29.97;;;15.27;;
22034;SDS011;11181;51.002;4.356;2023-02-11T08:59:26;25.60;;;15.17;;
22034;SDS011;11181;51.002;4.356;2023-02-11T09:01:53;28.77;;;15.07;;
22034;SDS011;11181;51.002;4.356;2023-02-11T09:04:21;28.87;;;16.43;;
22034;SDS011;11181;51.002;4.356;2023-02-11T09:06:48;28.10;;;15.13;;
22034;SDS011;11181;51.002;4.356;2023-02-11T09:09:15;32.53;;;15.17;;
22034;SDS011;11181;51.002;4.356;2023-02-11T09:11:43;30.10;;;15.63;;
22034;SDS011;11181;51.002;4.356;2023-02-11T09:14:15;26.83;;;16.10;;
22034;SDS011;11181;51.002;4.356;2023-02-11T09:16:43;27.03;;;16.03;;
22034;SDS011;11181;51.002;4.356;2023-02-11T09:19:10;28.33;;;15.07;;
22034;SDS011;11181;51.002;4.356;2023-02-11T09:21:37;26.77;;;16.30;;
22034;SDS011;11181;51.002;4.356;2023-02-11T09:24:04;28.77;;;15.53;;
22034;SDS011;11181;51.002;4.356;2023-02-11T09:26:32;29.03;;;16.37;;
22034;SDS011;11181;51.002;4.356;2023-02-11T09:29:00;35.47;;;15.83;;
22034;SDS011;11181;51.002;4.356;2023-02-11T09:31:30;29.40;;;15.87;;
22034;SDS011;11181;51.002;4.356;2023-02-11T09:33:59;29.10;;;16.33;;
22034;SDS011;11181;51.002;4.356;2023-02-11T09:36:28;33.70;;;17.13;;
22034;SDS011;11181;51.002;4.356;2023-02-11T09:38:56;37.37;;;16.97;;
22034;SDS011;11181;51.002;4.356;2023-02-11T09:41:29;35.07;;;16.77;;
22034;SDS011;11181;51.002;4.356;2023-02-11T09:44:05;29.63;;;17.23;;
22034;SDS011;11181;51.002;4.356;2023-02-11T09:46:35;32.60;;;17.93;;
22034;SDS011;11181;51.002;4.356;2023-02-11T09:49:06;39.07;;;19.10;;
22034;SDS011;11181;51.002;4.356;2023-02-11T09:51:45;33.83;;;17.87;;
22034;SDS011;11181;51.002;4.356;2023-02-11T09:54:15;34.10;;;18.70;;
22034;SDS011;11181;51.002;4.356;2023-02-11T09:56:53;33.30;;;18.63;;
22034;SDS011;11181;51.002;4.356;2023-02-11T09:59:20;31.77;;;18.43;;
22034;SDS011;11181;51.002;4.356;2023-02-11T10:01:50;42.70;;;18.67;;
22034;SDS011;11181;51.002;4.356;2023-02-11T10:04:25;31.67;;;18.83;;
22034;SDS011;11181;51.002;4.356;2023-02-11T10:07:06;39.83;;;20.43;;
22034;SDS011;11181;51.002;4.356;2023-02-11T10:09:45;35.83;;;19.40;;
22034;SDS011;11181;51.002;4.356;2023-02-11T10:12:23;40.07;;;20.90;;
22034;SDS011;11181;51.002;4.356;2023-02-11T10:15:12;42.50;;;20.20;;
22034;SDS011;11181;51.002;4.356;2023-02-11T10:17:48;42.13;;;19.97;;
22034;SDS011;11181;51.002;4.356;2023-02-11T10:20:28;39.80;;;21.93;;
22034;SDS011;11181;51.002;4.356;2023-02-11T10:23:04;40.07;;;23.27;;
22034;SDS011;11181;51.002;4.356;2023-02-11T10:25:36;41.57;;;20.67;;
22034;SDS011;11181;51.002;4.356;2023-02-11T10:28:09;40.47;;;20.90;;
22034;SDS011;11181;51.002;4.356;2023-02-11T10:30:40;45.07;;;20.80;;
22034;SDS011;11181;51.002;4.356;2023-02-11T10:33:14;40.13;;;21.03;;
22034;SDS011;11181;51.002;4.356;2023-02-11T10:35:48;38.53;;;20.53;;
22034;SDS011;11181;51.002;4.356;2023-02-11T10:38:15;46.03;;;21.87;;
22034;SDS011;11181;51.002;4.356;2023-02-11T10:40:42;41.37;;;21.20;;
22034;SDS011;11181;51.002;4.356;2023-02-11T10:43:10;42.97;;;21.90;;
22034;SDS011;11181;51.002;4.356;2023-02-11T10:45:41;43.63;;;20.93;;
22034;SDS011;11181;51.002;4.356;2023-02-11T10:51:17;39.00;;;21.27;;
22034;SDS011;11181;51.002;4.356;2023-02-11T10:53:46;41.83;;;21.20;;
22034;SDS011;11181;51.002;4.356;2023-02-11T10:56:19;45.27;;;21.57;;
22034;SDS011;11181;51.002;4.356;2023-02-11T10:58:55;41.67;;;21.53;;
22034;SDS011;11181;51.002;4.356;2023-02-11T11:01:36;46.40;;;21.80;;
22034;SDS011;11181;51.002;4.356;2023-02-11T11:04:09;47.87;;;22.67;;
22034;SDS011;11181;51.002;4.356;2023-02-11T11:07:08;41.13;;;21.60;;
22034;SDS011;11181;51.002;4.356;2023-02-11T11:09:43;39.10;;;20.13;;
22034;SDS011;11181;51.002;4.356;2023-02-11T11:12:26;38.17;;;21.43;;
22034;SDS011;11181;51.002;4.356;2023-02-11T11:15:01;42.00;;;22.03;;
22034;SDS011;11181;51.002;4.356;2023-02-11T11:17:40;34.37;;;19.93;;
22034;SDS011;11181;51.002;4.356;2023-02-11T11:22:53;35.60;;;20.13;;
22034;SDS011;11181;51.002;4.356;2023-02-11T11:25:36;40.90;;;21.77;;
22034;SDS011;11181;51.002;4.356;2023-02-11T11:28:15;33.23;;;19.87;;
22034;SDS011;11181;51.002;4.356;2023-02-11T11:30:46;35.13;;;20.63;;
22034;SDS011;11181;51.002;4.356;2023-02-11T11:33:15;35.30;;;19.17;;
22034;SDS011;11181;51.002;4.356;2023-02-11T11:35:54;38.03;;;20.50;;
22034;SDS011;11181;51.002;4.356;2023-02-11T11:38:25;41.97;;;22.27;;
22034;SDS011;11181;51.002;4.356;2023-02-11T11:41:12;34.90;;;20.00;;
22034;SDS011;11181;51.002;4.356;2023-02-11T11:43:54;37.60;;;20.87;;
22034;SDS011;11181;51.002;4.356;2023-02-11T11:46:27;40.93;;;21.80;;
22034;SDS011;11181;51.002;4.356;2023-02-11T11:48:58;41.33;;;21.40;;
22034;SDS011;11181;51.002;4.356;2023-02-11T11:51:36;35.07;;;18.83;;
22034;SDS011;11181;51.002;4.356;2023-02-11T11:54:07;39.70;;;20.60;;
22034;SDS011;11181;51.002;4.356;2023-02-11T11:56:40;37.00;;;20.53;;
22034;SDS011;11181;51.002;4.356;2023-02-11T11:59:14;37.43;;;20.33;;
22034;SDS011;11181;51.002;4.356;2023-02-11T12:01:44;42.30;;;22.67;;
22034;SDS011;11181;51.002;4.356;2023-02-11T12:04:28;39.47;;;21.07;;
22034;SDS011;11181;51.002;4.356;2023-02-11T12:07:16;46.67;;;20.83;;
22034;SDS011;11181;51.002;4.356;2023-02-11T12:09:53;35.63;;;19.30;;
22034;SDS011;11181;51.002;4.356;2023-02-11T12:12:32;39.20;;;20.47;;
22034;SDS011;11181;51.002;4.356;2023-02-11T12:15:12;38.57;;;21.30;;
22034;SDS011;11181;51.002;4.356;2023-02-11T12:17:51;36.70;;;21.13;;
22034;SDS011;11181;51.002;4.356;2023-02-11T12:20:31;37.80;;;20.57;;
22034;SDS011;11181;51.002;4.356;2023-02-11T12:23:13;41.10;;;22.03;;
22034;SDS011;11181;51.002;4.356;2023-02-11T12:26:05;38.43;;;21.90;;
22034;SDS011;11181;51.002;4.356;2023-02-11T12:28:39;38.73;;;21.10;;
22034;SDS011;11181;51.002;4.356;2023-02-11T12:34:16;41.13;;;20.97;;
22034;SDS011;11181;51.002;4.356;2023-02-11T12:37:00;37.13;;;20.87;;
22034;SDS011;11181;51.002;4.356;2023-02-11T12:39:38;32.97;;;19.30;;
22034;SDS011;11181;51.002;4.356;2023-02-11T12:42:15;39.27;;;22.50;;
22034;SDS011;11181;51.002;4.356;2023-02-11T12:45:20;40.60;;;22.13;;
22034;SDS011;11181;51.002;4.356;2023-02-11T12:48:07;34.47;;;20.13;;
22034;SDS011;11181;51.002;4.356;2023-02-11T12:50:51;40.23;;;21.57;;
22034;SDS011;11181;51.002;4.356;2023-02-11T12:53:31;39.93;;;22.83;;
22034;SDS011;11181;51.002;4.356;2023-02-11T12:56:10;39.53;;;21.83;;
22034;SDS011;11181;51.002;4.356;2023-02-11T12:58:42;45.00;;;22.20;;
22034;SDS011;11181;51.002;4.356;2023-02-11T13:01:14;40.13;;;21.37;;
22034;SDS011;11181;51.002;4.356;2023-02-11T13:03:46;39.93;;;22.53;;
22034;SDS011;11181;51.002;4.356;2023-02-11T13:06:17;41.70;;;22.97;;
22034;SDS011;11181;51.002;4.356;2023-02-11T13:08:48;40.57;;;21.87;;
22034;SDS011;11181;51.002;4.356;2023-02-11T13:11:22;40.17;;;22.67;;
22034;SDS011;11181;51.002;4.356;2023-02-11T13:13:53;41.40;;;22.33;;
22034;SDS011;11181;51.002;4.356;2023-02-11T13:16:29;35.90;;;21.17;;
22034;SDS011;11181;51.002;4.356;2023-02-11T13:19:02;45.43;;;22.83;;
22034;SDS011;11181;51.002;4.356;2023-02-11T13:21:46;38.07;;;21.27;;
22034;SDS011;11181;51.002;4.356;2023-02-11T13:24:33;39.57;;;21.77;;
22034;SDS011;11181;51.002;4.356;2023-02-11T13:27:09;41.83;;;22.27;;
22034;SDS011;11181;51.002;4.356;2023-02-11T13:29:58;39.03;;;21.50;;
22034;SDS011;11181;51.002;4.356;2023-02-11T13:35:43;41.93;;;22.17;;
22034;SDS011;11181;51.002;4.356;2023-02-11T13:38:17;42.83;;;23.00;;
22034;SDS011;11181;51.002;4.356;2023-02-11T13:40:57;42.13;;;22.67;;
22034;SDS011;11181;51.002;4.356;2023-02-11T13:43:30;40.73;;;22.30;;
22034;SDS011;11181;51.002;4.356;2023-02-11T13:45:59;40.57;;;23.23;;
22034;SDS011;11181;51.002;4.356;2023-02-11T13:48:28;36.87;;;22.50;;
22034;SDS011;11181;51.002;4.356;2023-02-11T13:50:58;38.33;;;23.00;;
22034;SDS011;11181;51.002;4.356;2023-02-11T13:53:27;42.33;;;22.83;;
22034;SDS011;11181;51.002;4.356;2023-02-11T13:56:04;39.13;;;21.30;;
22034;SDS011;11181;51.002;4.356;2023-02-11T13:58:35;37.37;;;22.53;;
22034;SDS011;11181;51.002;4.356;2023-02-11T14:01:11;37.20;;;22.10;;
22034;SDS011;11181;51.002;4.356;2023-02-11T14:04:17;38.77;;;21.50;;
22034;SDS011;11181;51.002;4.356;2023-02-11T14:13:16;36.90;;;21.83;;
22034;SDS011;11181;51.002;4.356;2023-02-11T14:15:50;37.10;;;20.83;;
22034;SDS011;11181;51.002;4.356;2023-02-11T14:21:29;38.63;;;21.53;;
22034;SDS011;11181;51.002;4.356;2023-02-11T14:27:13;36.10;;;20.90;;
22034;SDS011;11181;51.002;4.356;2023-02-11T14:29:52;34.13;;;22.40;;
22034;SDS011;11181;51.002;4.356;2023-02-11T14:32:41;38.70;;;22.57;;
22034;SDS011;11181;51.002;4.356;2023-02-11T14:35:20;37.43;;;22.13;;
22034;SDS011;11181;51.002;4.356;2023-02-11T14:37:54;34.60;;;21.63;;
22034;SDS011;11181;51.002;4.356;2023-02-11T14:40:30;35.57;;;21.50;;
22034;SDS011;11181;51.002;4.356;2023-02-11T14:43:01;35.67;;;21.47;;
22034;SDS011;11181;51.002;4.356;2023-02-11T14:45:33;33.70;;;21.07;;
22034;SDS011;11181;51.002;4.356;2023-02-11T14:48:03;35.50;;;20.70;;
22034;SDS011;11181;51.002;4.356;2023-02-11T14:50:35;36.83;;;20.70;;
22034;SDS011;11181;51.002;4.356;2023-02-11T14:53:10;33.90;;;20.53;;
22034;SDS011;11181;51.002;4.356;2023-02-11T14:55:40;36.37;;;20.27;;
22034;SDS011;11181;51.002;4.356;2023-02-11T14:58:11;32.03;;;20.63;;
22034;SDS011;11181;51.002;4.356;2023-02-11T15:00:52;33.57;;;20.70;;
22034;SDS011;11181;51.002;4.356;2023-02-11T15:03:26;35.70;;;21.97;;
22034;SDS011;11181;51.002;4.356;2023-02-11T15:05:54;36.50;;;21.10;;
22034;SDS011;11181;51.002;4.356;2023-02-11T15:08:23;32.03;;;21.67;;
22034;SDS011;11181;51.002;4.356;2023-02-11T15:10:50;33.50;;;21.33;;
22034;SDS011;11181;51.002;4.356;2023-02-11T15:13:20;37.83;;;22.57;;
22034;SDS011;11181;51.002;4.356;2023-02-11T15:15:51;33.27;;;21.23;;
22034;SDS011;11181;51.002;4.356;2023-02-11T15:18:23;36.60;;;21.37;;
22034;SDS011;11181;51.002;4.356;2023-02-11T15:20:56;35.90;;;21.20;;